Главная страница
METAR-TAF:

METAR-TAF

Аэропорты :

Qaisumah, Саудовская Аравия

широта: 28-19N, долгота: 046-07E, высота над уровнем моря: 358 м

Текущие метеонаблюдения

Эта сводка был подготовлена 2 часа и 33 минут назад, в 23:00 UTC
Ветер 6 Узел от северный
Температура 17°C
Влажность 55%
Давление 1017 hPa
Видимость 10 км и более
Нет облачности ниже 1500 м, и нет кучево-дождевой облачности

METAR: OEPA 262300Z 01006KT CAVOK 17/08 Q1017 NOSIG

Время: 04:33 (01:33 UTC)

Прогноз

Эта сводка был подготовлена 2 часа и 48 минут назад, в 22:45 UTC
Прогноз действительный с 27-го 00 UTC до 28-го 06 UTC
Ветер 12 Узел от северо-северо-восточный
Видимость 10 км и более
Нет облачности ниже 1500 м, и нет кучево-дождевой облачности
изменения
С 27-го 22 UTC до 28-го 00 UTC
Ветер 7 Узел от восточно-юго-восточный

TAF: OEPA 262245Z 2700/2806 03012KT CAVOK BECMG 2722/2800 12007KT

Метеонаблюдения и прогнозы для более 4000 аэропортов (сводки METAR и TAF).

Имеющиеся станции представлены на карте желтыми и красными точками.

Чтобы увидеть название станции, наведите на нее мышь.

Затем щелкните, чтобы увидеть метеонаблюдения и метеопрогнозы.

Управление картой: чтобы увеличить масштаб, щелкните зеленые кнопки с черным крестиком; чтобы уменьшить масштаб, щелкните зеленую кнопку с тире; для просмотра соседних карт щелкайте зеленые стрелки.


METAR-TAF: